Time,TemperatureF,DewpointF,PressureIn,WindDirection,WindDirectionDegrees,WindSpeedMPH,WindSpeedGustMPH,Humidity,HourlyPrecipIn,Conditions,Clouds,dailyrainin,SoftwareType,DateUTC
2013-01-31 07:02:00,6.0,3.0,-100.00,WNW,295,3.0,4.0,86,0.00,,,-99.99,,2013-01-31 14:02:00,
2013-01-31 07:11:00,5.0,2.0,-100.00,West,280,1.0,4.0,86,0.00,,,-99.99,,2013-01-31 14:11:00,
2013-01-31 07:22:00,5.0,2.0,-100.00,WSW,255,0.0,3.0,86,0.00,,,-99.99,,2013-01-31 14:22:00,
2013-01-31 07:32:00,5.0,2.0,-100.00,WNW,295,1.0,5.0,86,0.00,,,-99.99,,2013-01-31 14:32:00,
2013-01-31 07:42:00,5.0,2.0,-100.00,NW,305,0.0,4.0,86,0.00,,,-99.99,,2013-01-31 14:42:00,
2013-01-31 07:52:00,5.0,2.0,-100.00,SSE,160,1.0,4.0,86,0.00,,,-99.99,,2013-01-31 14:52:00,
2013-01-31 08:03:00,6.0,3.0,-100.00,West,275,2.0,3.0,86,0.00,,,-99.99,,2013-01-31 15:03:00,
2013-01-31 08:12:00,8.0,5.0,-100.00,SW,235,1.0,2.0,86,0.00,,,-99.99,,2013-01-31 15:12:00,
2013-01-31 08:22:00,11.0,8.0,-100.00,WNW,300,1.0,4.0,85,0.00,,,-99.99,,2013-01-31 15:22:00,
2013-01-31 08:32:00,12.0,8.0,-100.00,NE,45,1.0,4.0,84,0.00,,,-99.99,,2013-01-31 15:32:00,
2013-01-31 08:42:00,14.0,10.0,-100.00,ESE,120,1.0,2.0,81,0.00,,,-99.99,,2013-01-31 15:42:00,
2013-01-31 08:52:00,16.0,10.0,-100.00,SW,225,2.0,3.0,76,0.00,,,-99.99,,2013-01-31 15:52:00,
2013-01-31 09:03:00,18.0,10.0,-100.00,SW,215,2.0,3.0,72,0.00,,,-99.99,,2013-01-31 16:03:00,
2013-01-31 09:12:00,20.0,10.0,-100.00,SSW,195,3.0,5.0,65,0.00,,,-99.99,,2013-01-31 16:12:00,
2013-01-31 09:22:00,22.0,9.0,-100.00,West,270,6.0,9.0,55,0.00,,,-99.99,,2013-01-31 16:22:00,
2013-01-31 09:33:00,21.0,8.0,-100.00,SW,220,4.0,11.0,55,0.00,,,-99.99,,2013-01-31 16:33:00,
2013-01-31 09:42:00,22.0,8.0,-100.00,West,260,4.0,12.0,53,0.00,,,-99.99,,2013-01-31 16:42:00,
2013-01-31 09:51:00,22.0,8.0,-100.00,West,260,4.0,12.0,53,0.00,,,-99.99,,2013-01-31 16:51:00,
2013-01-31 10:02:00,26.0,10.0,-100.00,East,90,2.0,6.0,51,0.00,,,-99.99,,2013-01-31 17:02:00,
2013-01-31 10:12:00,27.0,10.0,-100.00,SSW,210,1.0,7.0,48,0.00,,,-99.99,,2013-01-31 17:12:00,
2013-01-31 10:23:00,28.0,9.0,-100.00,SSW,210,4.0,7.0,44,0.00,,,-99.99,,2013-01-31 17:23:00,
2013-01-31 10:32:00,28.0,9.0,-100.00,SW,220,2.0,7.0,42,0.00,,,-99.99,,2013-01-31 17:32:00,
2013-01-31 10:43:00,30.0,9.0,-100.00,ENE,75,2.0,6.0,40,0.00,,,-99.99,,2013-01-31 17:43:00,
2013-01-31 10:53:00,33.0,10.0,-100.00,NE,40,1.0,2.0,37,0.00,,,-99.99,,2013-01-31 17:53:00,
2013-01-31 11:03:00,33.0,9.0,-100.00,SE,130,2.0,4.0,35,0.00,,,-99.99,,2013-01-31 18:03:00,
2013-01-31 11:12:00,32.0,6.0,-100.00,WSW,255,2.0,6.0,33,0.00,,,-99.99,,2013-01-31 18:12:00,
2013-01-31 11:22:00,30.0,8.0,-100.00,SSW,205,4.0,11.0,39,0.00,,,-99.99,,2013-01-31 18:22:00,
2013-01-31 11:32:00,30.0,9.0,-100.00,SW,235,4.0,11.0,40,0.00,,,-99.99,,2013-01-31 18:32:00,
2013-01-31 11:43:00,31.0,10.0,-100.00,SSW,200,2.0,7.0,40,0.00,,,-99.99,,2013-01-31 18:43:00,
2013-01-31 11:52:00,34.0,12.0,-100.00,SW,215,4.0,7.0,39,0.00,,,-99.99,,2013-01-31 18:52:00,
2013-01-31 12:02:00,34.0,11.0,-100.00,SW,220,4.0,7.0,38,0.00,,,-99.99,,2013-01-31 19:02:00,
2013-01-31 12:12:00,39.0,14.0,-100.00,ESE,110,4.0,5.0,34,0.00,,,-99.99,,2013-01-31 19:12:00,
2013-01-31 12:22:00,41.0,12.0,-100.00,ESE,110,6.0,9.0,30,0.00,,,-99.99,,2013-01-31 19:22:00,
2013-01-31 12:32:00,40.0,12.0,-100.00,East,95,2.0,9.0,30,0.00,,,-99.99,,2013-01-31 19:32:00,
2013-01-31 12:42:00,41.0,12.0,-100.00,ESE,120,2.0,6.0,30,0.00,,,-99.99,,2013-01-31 19:42:00,
2013-01-31 12:52:00,42.0,12.0,-100.00,ESE,105,3.0,6.0,28,0.00,,,-99.99,,2013-01-31 19:52:00,
2013-01-31 13:02:00,42.0,12.0,-100.00,SE,125,3.0,6.0,28,0.00,,,-99.99,,2013-01-31 20:02:00,
2013-01-31 13:11:00,43.0,12.0,-100.00,SE,130,3.0,4.0,28,0.00,,,-99.99,,2013-01-31 20:11:00,
2013-01-31 13:22:00,43.0,12.0,-100.00,SW,230,2.0,3.0,27,0.00,,,-99.99,,2013-01-31 20:22:00,
2013-01-31 13:31:00,39.0,10.0,-100.00,SW,225,6.0,9.0,29,0.00,,,-99.99,,2013-01-31 20:31:00,
2013-01-31 13:42:00,36.0,9.0,-100.00,SW,215,4.0,9.0,31,0.00,,,-99.99,,2013-01-31 20:42:00,
2013-01-31 13:52:00,37.0,11.0,-100.00,South,180,1.0,9.0,33,0.00,,,-99.99,,2013-01-31 20:52:00,
2013-01-31 14:02:00,36.0,9.0,-100.00,SSW,210,6.0,9.0,32,0.00,,,-99.99,,2013-01-31 21:02:00,
2013-01-31 14:12:00,35.0,7.0,-100.00,SW,215,6.0,13.0,31,0.00,,,-99.99,,2013-01-31 21:12:00,
2013-01-31 14:22:00,36.0,8.0,-100.00,SSW,195,5.0,12.0,30,0.00,,,-99.99,,2013-01-31 21:22:00,
2013-01-31 14:32:00,35.0,7.0,-100.00,South,185,6.0,13.0,30,0.00,,,-99.99,,2013-01-31 21:32:00,
2013-01-31 14:42:00,35.0,7.0,-100.00,South,185,6.0,13.0,30,0.00,,,-99.99,,2013-01-31 21:42:00,
2013-01-31 14:52:00,35.0,7.0,-100.00,South,185,6.0,13.0,30,0.00,,,-99.99,,2013-01-31 21:52:00,
2013-01-31 15:02:00,35.0,7.0,-100.00,South,185,6.0,13.0,30,0.00,,,-99.99,,2013-01-31 22:02:00,
2013-01-31 15:33:00,29.0,15.0,-100.00,SW,225,6.0,13.0,57,0.00,,,-99.99,,2013-01-31 22:33:00,
2013-01-31 15:42:00,29.0,17.0,-100.00,SW,235,6.0,11.0,61,0.00,,,-99.99,,2013-01-31 22:42:00,
2013-01-31 15:52:00,28.0,17.0,-100.00,SW,230,6.0,11.0,63,0.00,,,-99.99,,2013-01-31 22:52:00,
2013-01-31 16:02:00,28.0,17.0,-100.00,SW,230,9.0,13.0,63,0.00,,,-99.99,,2013-01-31 23:02:00,
2013-01-31 16:12:00,27.0,17.0,-100.00,SSW,210,9.0,12.0,66,0.00,,,-99.99,,2013-01-31 23:12:00,
2013-01-31 16:22:00,24.0,16.0,-100.00,SSW,205,9.0,16.0,70,0.00,,,-99.99,,2013-01-31 23:22:00,
2013-01-31 16:32:00,24.0,16.0,-100.00,SW,215,10.0,16.0,70,0.00,,,-99.99,,2013-01-31 23:32:00,
2013-01-31 16:42:00,24.0,16.0,-100.00,SW,220,9.0,15.0,69,0.00,,,-99.99,,2013-01-31 23:42:00,
2013-01-31 16:52:00,23.0,13.0,-100.00,SSW,205,7.0,12.0,66,0.00,,,-99.99,,2013-01-31 23:52:00,
2013-01-31 17:01:00,22.0,13.0,-100.00,SW,220,7.0,13.0,67,0.00,,,-99.99,,2013-02-01 00:01:00,
2013-01-31 17:11:00,21.0,13.0,-100.00,SW,230,7.0,11.0,68,0.00,,,-99.99,,2013-02-01 00:11:00,
2013-01-31 17:22:00,21.0,13.0,-100.00,West,265,6.0,11.0,70,0.00,,,-99.99,,2013-02-01 00:22:00,
2013-01-31 17:32:00,20.0,13.0,-100.00,SW,220,6.0,9.0,72,0.00,,,-99.99,,2013-02-01 00:32:00,
2013-01-31 17:42:00,19.0,13.0,-100.00,SW,220,7.0,10.0,75,0.00,,,-99.99,,2013-02-01 00:42:00,
2013-01-31 17:51:00,19.0,13.0,-100.00,WSW,245,7.0,11.0,77,0.00,,,-99.99,,2013-02-01 00:51:00,
2013-01-31 18:01:00,19.0,13.0,-100.00,WSW,250,7.0,13.0,78,0.00,,,-99.99,,2013-02-01 01:01:00,
2013-01-31 18:11:00,19.0,13.0,-100.00,SW,230,7.0,12.0,80,0.00,,,-99.99,,2013-02-01 01:11:00,
2013-01-31 18:21:00,18.0,14.0,-100.00,SSW,205,7.0,14.0,81,0.00,,,-99.99,,2013-02-01 01:21:00,
2013-01-31 18:32:00,18.0,13.0,-100.00,SSW,210,7.0,12.0,81,0.00,,,-99.99,,2013-02-01 01:32:00,
2013-01-31 18:42:00,18.0,12.0,-100.00,SW,220,10.0,15.0,78,0.00,,,-99.99,,2013-02-01 01:42:00,
2013-01-31 18:52:00,17.0,10.0,-100.00,WSW,250,7.0,16.0,72,0.00,,,-99.99,,2013-02-01 01:52:00,
2013-01-31 19:02:00,17.0,10.0,-100.00,SW,230,8.0,15.0,73,0.00,,,-99.99,,2013-02-01 02:02:00,
2013-01-31 19:11:00,18.0,11.0,-100.00,WSW,250,8.0,12.0,74,0.00,,,-99.99,,2013-02-01 02:11:00,
2013-01-31 19:21:00,19.0,12.0,-100.00,SW,215,7.0,10.0,74,0.00,,,-99.99,,2013-02-01 02:21:00,
2013-01-31 19:32:00,19.0,13.0,-100.00,SW,225,7.0,11.0,77,0.00,,,-99.99,,2013-02-01 02:32:00,
2013-01-31 19:42:00,19.0,14.0,-100.00,SW,230,8.0,14.0,80,0.00,,,-99.99,,2013-02-01 02:42:00,
2013-01-31 19:52:00,19.0,15.0,-100.00,SSW,210,7.0,11.0,81,0.00,,,-99.99,,2013-02-01 02:52:00,
2013-01-31 20:02:00,19.0,15.0,-100.00,SW,215,7.0,11.0,83,0.00,,,-99.99,,2013-02-01 03:02:00,
2013-01-31 20:12:00,19.0,15.0,-100.00,South,185,6.0,11.0,83,0.00,,,-99.99,,2013-02-01 03:12:00,
2013-01-31 20:21:00,19.0,15.0,-100.00,SW,215,4.0,11.0,84,0.00,,,-99.99,,2013-02-01 03:21:00,
2013-01-31 20:32:00,19.0,15.0,-100.00,SW,225,7.0,13.0,84,0.00,,,-99.99,,2013-02-01 03:32:00,
2013-01-31 20:42:00,19.0,15.0,-100.00,SW,230,4.0,12.0,84,0.00,,,-99.99,,2013-02-01 03:42:00,
2013-01-31 20:52:00,19.0,15.0,-100.00,SW,225,6.0,9.0,84,0.00,,,-99.99,,2013-02-01 03:52:00,
2013-01-31 21:02:00,19.0,15.0,-100.00,SW,220,4.0,7.0,84,0.00,,,-99.99,,2013-02-01 04:02:00,
2013-01-31 21:11:00,19.0,15.0,-100.00,SSW,210,3.0,6.0,84,0.00,,,-99.99,,2013-02-01 04:11:00,
2013-01-31 21:21:00,19.0,15.0,-100.00,SSW,200,4.0,6.0,84,0.00,,,-99.99,,2013-02-01 04:21:00,
2013-01-31 21:32:00,18.0,14.0,-100.00,SW,225,4.0,7.0,84,0.00,,,-99.99,,2013-02-01 04:32:00,
2013-01-31 21:41:00,17.0,13.0,-100.00,WSW,245,5.0,6.0,85,0.00,,,-99.99,,2013-02-01 04:41:00,
2013-01-31 21:51:00,17.0,14.0,-100.00,West,270,5.0,9.0,86,0.00,,,-99.99,,2013-02-01 04:51:00,
2013-01-31 22:03:00,17.0,14.0,-100.00,WSW,250,4.0,9.0,86,0.00,,,-99.99,,2013-02-01 05:03:00,
2013-01-31 22:11:00,16.0,13.0,-100.00,WSW,255,6.0,7.0,86,0.00,,,-99.99,,2013-02-01 05:11:00,
2013-01-31 22:22:00,16.0,13.0,-100.00,WSW,255,6.0,9.0,87,0.00,,,-99.99,,2013-02-01 05:22:00,
2013-01-31 22:32:00,15.0,12.0,-100.00,SW,235,6.0,9.0,87,0.00,,,-99.99,,2013-02-01 05:32:00,
2013-01-31 22:42:00,14.0,11.0,-100.00,West,260,6.0,9.0,87,0.00,,,-99.99,,2013-02-01 05:42:00,
2013-01-31 22:52:00,14.0,11.0,-100.00,SW,225,5.0,7.0,87,0.00,,,-99.99,,2013-02-01 05:52:00,
2013-01-31 23:02:00,14.0,11.0,-100.00,SW,230,4.0,7.0,88,0.00,,,-99.99,,2013-02-01 06:02:00,
2013-01-31 23:11:00,14.0,11.0,-100.00,SW,235,6.0,8.0,89,0.00,,,-99.99,,2013-02-01 06:11:00,
2013-01-31 23:22:00,14.0,12.0,-100.00,WSW,240,4.0,9.0,89,0.00,,,-99.99,,2013-02-01 06:22:00,
2013-01-31 23:32:00,14.0,11.0,-100.00,WSW,240,3.0,7.0,88,0.00,,,-99.99,,2013-02-01 06:32:00,
2013-01-31 23:42:00,13.0,10.0,-100.00,NNE,15,0.0,5.0,88,0.00,,,-99.99,,2013-02-01 06:42:00,
2013-01-31 23:52:00,12.0,9.0,-100.00,WSW,245,0.0,1.0,88,0.00,,,-99.99,,2013-02-01 06:52:00,